sensor_id;sensor_type;location;lat;lon;timestamp;temperature;humidity
66086;DHT22;52868;49.758;9.586;2022-12-29T00:01:37;8.80;74.00
66086;DHT22;52868;49.758;9.586;2022-12-29T00:04:04;8.80;74.00
66086;DHT22;52868;49.758;9.586;2022-12-29T00:06:30;8.80;74.00
66086;DHT22;52868;49.758;9.586;2022-12-29T00:08:56;8.80;74.00
66086;DHT22;52868;49.758;9.586;2022-12-29T00:11:25;8.80;74.00
66086;DHT22;52868;49.758;9.586;2022-12-29T00:13:51;8.80;74.00
66086;DHT22;52868;49.758;9.586;2022-12-29T00:16:36;8.80;74.00
66086;DHT22;52868;49.758;9.586;2022-12-29T00:19:02;8.80;74.00
66086;DHT22;52868;49.758;9.586;2022-12-29T00:21:31;8.90;74.10
66086;DHT22;52868;49.758;9.586;2022-12-29T00:24:21;8.90;74.10
66086;DHT22;52868;49.758;9.586;2022-12-29T00:27:10;8.80;74.10
66086;DHT22;52868;49.758;9.586;2022-12-29T00:29:56;8.90;74.10
66086;DHT22;52868;49.758;9.586;2022-12-29T00:32:40;8.90;74.20
66086;DHT22;52868;49.758;9.586;2022-12-29T00:35:39;8.90;74.10
66086;DHT22;52868;49.758;9.586;2022-12-29T00:38:08;8.90;74.10
66086;DHT22;52868;49.758;9.586;2022-12-29T00:40:54;8.90;74.20
66086;DHT22;52868;49.758;9.586;2022-12-29T00:43:39;8.90;74.20
66086;DHT22;52868;49.758;9.586;2022-12-29T00:46:23;8.90;74.30
66086;DHT22;52868;49.758;9.586;2022-12-29T00:48:49;9.00;74.20
66086;DHT22;52868;49.758;9.586;2022-12-29T00:51:33;9.00;74.30
66086;DHT22;52868;49.758;9.586;2022-12-29T00:53:59;9.00;74.30
66086;DHT22;52868;49.758;9.586;2022-12-29T00:56:24;9.00;74.40
66086;DHT22;52868;49.758;9.586;2022-12-29T00:58:50;9.00;74.20
66086;DHT22;52868;49.758;9.586;2022-12-29T01:01:18;9.00;74.30
66086;DHT22;52868;49.758;9.586;2022-12-29T01:03:44;9.00;74.40
66086;DHT22;52868;49.758;9.586;2022-12-29T01:06:11;8.90;74.30
66086;DHT22;52868;49.758;9.586;2022-12-29T01:08:37;9.00;74.40
66086;DHT22;52868;49.758;9.586;2022-12-29T01:11:10;9.00;74.40
66086;DHT22;52868;49.758;9.586;2022-12-29T01:13:36;9.00;74.40
66086;DHT22;52868;49.758;9.586;2022-12-29T01:16:07;9.00;74.40
66086;DHT22;52868;49.758;9.586;2022-12-29T01:18:33;8.90;74.50
66086;DHT22;52868;49.758;9.586;2022-12-29T01:21:05;9.00;74.50
66086;DHT22;52868;49.758;9.586;2022-12-29T01:23:32;9.00;74.60
66086;DHT22;52868;49.758;9.586;2022-12-29T01:26:03;9.00;74.60
66086;DHT22;52868;49.758;9.586;2022-12-29T01:28:33;9.00;74.70
66086;DHT22;52868;49.758;9.586;2022-12-29T01:31:00;9.00;74.70
66086;DHT22;52868;49.758;9.586;2022-12-29T01:33:26;9.00;74.70
66086;DHT22;52868;49.758;9.586;2022-12-29T01:35:52;9.00;74.90
66086;DHT22;52868;49.758;9.586;2022-12-29T01:38:17;9.10;74.90
66086;DHT22;52868;49.758;9.586;2022-12-29T01:40:45;9.10;75.00
66086;DHT22;52868;49.758;9.586;2022-12-29T01:43:13;9.10;74.90
66086;DHT22;52868;49.758;9.586;2022-12-29T01:45:45;9.10;75.00
66086;DHT22;52868;49.758;9.586;2022-12-29T01:48:13;9.10;75.20
66086;DHT22;52868;49.758;9.586;2022-12-29T01:50:43;9.10;75.10
66086;DHT22;52868;49.758;9.586;2022-12-29T01:53:21;9.20;75.10
66086;DHT22;52868;49.758;9.586;2022-12-29T01:55:54;9.20;75.30
66086;DHT22;52868;49.758;9.586;2022-12-29T01:58:23;9.20;75.20
66086;DHT22;52868;49.758;9.586;2022-12-29T02:00:49;9.20;75.50
66086;DHT22;52868;49.758;9.586;2022-12-29T02:03:16;9.20;75.40
66086;DHT22;52868;49.758;9.586;2022-12-29T02:06:28;9.20;75.60
66086;DHT22;52868;49.758;9.586;2022-12-29T02:08:35;9.20;75.70
66086;DHT22;52868;49.758;9.586;2022-12-29T02:11:01;9.20;75.70
66086;DHT22;52868;49.758;9.586;2022-12-29T02:13:28;9.20;75.80
66086;DHT22;52868;49.758;9.586;2022-12-29T02:18:49;9.20;76.20
66086;DHT22;52868;49.758;9.586;2022-12-29T02:21:41;9.20;76.00
66086;DHT22;52868;49.758;9.586;2022-12-29T02:27:25;9.20;76.40
66086;DHT22;52868;49.758;9.586;2022-12-29T02:33:19;9.30;76.70
66086;DHT22;52868;49.758;9.586;2022-12-29T02:38:50;9.30;76.80
66086;DHT22;52868;49.758;9.586;2022-12-29T02:43:57;9.30;76.80
66086;DHT22;52868;49.758;9.586;2022-12-29T02:46:53;9.30;77.00
66086;DHT22;52868;49.758;9.586;2022-12-29T02:49:25;9.30;77.00
66086;DHT22;52868;49.758;9.586;2022-12-29T02:52:04;9.30;77.10
66086;DHT22;52868;49.758;9.586;2022-12-29T02:54:32;9.30;76.80
66086;DHT22;52868;49.758;9.586;2022-12-29T02:59:42;9.30;77.00
66086;DHT22;52868;49.758;9.586;2022-12-29T03:05:07;9.30;77.20
66086;DHT22;52868;49.758;9.586;2022-12-29T03:13:02;9.30;77.30
66086;DHT22;52868;49.758;9.586;2022-12-29T03:15:59;9.30;77.40
66086;DHT22;52868;49.758;9.586;2022-12-29T03:18:41;9.30;77.70
66086;DHT22;52868;49.758;9.586;2022-12-29T03:24:12;9.40;77.90
66086;DHT22;52868;49.758;9.586;2022-12-29T03:26:37;9.30;77.80
66086;DHT22;52868;49.758;9.586;2022-12-29T03:29:05;9.40;77.90
66086;DHT22;52868;49.758;9.586;2022-12-29T03:31:34;9.40;78.00
66086;DHT22;52868;49.758;9.586;2022-12-29T03:34:01;9.30;78.00
66086;DHT22;52868;49.758;9.586;2022-12-29T03:36:35;9.40;78.00
66086;DHT22;52868;49.758;9.586;2022-12-29T03:39:09;9.40;78.30
66086;DHT22;52868;49.758;9.586;2022-12-29T03:41:38;9.30;78.20
66086;DHT22;52868;49.758;9.586;2022-12-29T03:44:08;9.40;78.20
66086;DHT22;52868;49.758;9.586;2022-12-29T03:46:34;9.40;78.20
66086;DHT22;52868;49.758;9.586;2022-12-29T03:49:00;9.50;78.30
66086;DHT22;52868;49.758;9.586;2022-12-29T03:51:26;9.40;78.30
66086;DHT22;52868;49.758;9.586;2022-12-29T03:53:51;9.40;78.20
66086;DHT22;52868;49.758;9.586;2022-12-29T03:56:17;9.50;78.30
66086;DHT22;52868;49.758;9.586;2022-12-29T03:58:42;9.50;78.10
66086;DHT22;52868;49.758;9.586;2022-12-29T04:01:08;9.40;78.10
66086;DHT22;52868;49.758;9.586;2022-12-29T04:03:34;9.40;78.20
66086;DHT22;52868;49.758;9.586;2022-12-29T04:05:59;9.40;78.20
66086;DHT22;52868;49.758;9.586;2022-12-29T04:08:25;9.40;78.20
66086;DHT22;52868;49.758;9.586;2022-12-29T04:10:51;9.40;78.20
66086;DHT22;52868;49.758;9.586;2022-12-29T04:13:16;9.50;78.40
66086;DHT22;52868;49.758;9.586;2022-12-29T04:15:43;9.50;78.40
66086;DHT22;52868;49.758;9.586;2022-12-29T04:18:11;9.40;78.10
66086;DHT22;52868;49.758;9.586;2022-12-29T04:20:36;9.40;78.30
66086;DHT22;52868;49.758;9.586;2022-12-29T04:23:20;9.50;78.30
66086;DHT22;52868;49.758;9.586;2022-12-29T04:25:46;9.50;78.20
66086;DHT22;52868;49.758;9.586;2022-12-29T04:28:16;9.40;78.30
66086;DHT22;52868;49.758;9.586;2022-12-29T04:30:43;9.50;78.30
66086;DHT22;52868;49.758;9.586;2022-12-29T04:33:08;9.50;78.30
66086;DHT22;52868;49.758;9.586;2022-12-29T04:35:34;9.50;78.20
66086;DHT22;52868;49.758;9.586;2022-12-29T04:38:00;9.50;78.10
66086;DHT22;52868;49.758;9.586;2022-12-29T04:40:26;9.50;78.10
66086;DHT22;52868;49.758;9.586;2022-12-29T04:42:51;9.50;78.10
66086;DHT22;52868;49.758;9.586;2022-12-29T04:45:17;9.50;78.30
66086;DHT22;52868;49.758;9.586;2022-12-29T04:47:42;9.50;78.20
66086;DHT22;52868;49.758;9.586;2022-12-29T04:50:08;9.50;78.30
66086;DHT22;52868;49.758;9.586;2022-12-29T04:52:34;9.50;78.20
66086;DHT22;52868;49.758;9.586;2022-12-29T04:55:01;9.50;78.30
66086;DHT22;52868;49.758;9.586;2022-12-29T04:57:27;9.50;78.10
66086;DHT22;52868;49.758;9.586;2022-12-29T04:59:52;9.50;78.20
66086;DHT22;52868;49.758;9.586;2022-12-29T05:02:18;9.50;78.30
66086;DHT22;52868;49.758;9.586;2022-12-29T05:04:44;9.50;78.20
66086;DHT22;52868;49.758;9.586;2022-12-29T05:07:11;9.50;78.20
66086;DHT22;52868;49.758;9.586;2022-12-29T05:09:36;9.50;78.20
66086;DHT22;52868;49.758;9.586;2022-12-29T05:12:02;9.60;78.20
66086;DHT22;52868;49.758;9.586;2022-12-29T05:14:28;9.50;78.20
66086;DHT22;52868;49.758;9.586;2022-12-29T05:16:53;9.50;78.10
66086;DHT22;52868;49.758;9.586;2022-12-29T05:19:19;9.60;78.00
66086;DHT22;52868;49.758;9.586;2022-12-29T05:21:45;9.60;78.20
66086;DHT22;52868;49.758;9.586;2022-12-29T05:24:10;9.60;78.10
66086;DHT22;52868;49.758;9.586;2022-12-29T05:26:36;9.50;78.00
66086;DHT22;52868;49.758;9.586;2022-12-29T05:29:01;9.50;78.10
66086;DHT22;52868;49.758;9.586;2022-12-29T05:31:27;9.60;78.20
66086;DHT22;52868;49.758;9.586;2022-12-29T05:33:53;9.60;78.20
66086;DHT22;52868;49.758;9.586;2022-12-29T05:36:19;9.60;78.10
66086;DHT22;52868;49.758;9.586;2022-12-29T05:38:44;9.60;78.00
66086;DHT22;52868;49.758;9.586;2022-12-29T05:41:10;9.60;78.10
66086;DHT22;52868;49.758;9.586;2022-12-29T05:43:35;9.60;78.00
66086;DHT22;52868;49.758;9.586;2022-12-29T05:46:01;9.60;78.00
66086;DHT22;52868;49.758;9.586;2022-12-29T05:48:28;9.60;77.90
66086;DHT22;52868;49.758;9.586;2022-12-29T05:50:53;9.70;78.00
66086;DHT22;52868;49.758;9.586;2022-12-29T05:53:19;9.60;77.80
66086;DHT22;52868;49.758;9.586;2022-12-29T05:55:46;9.70;77.90
66086;DHT22;52868;49.758;9.586;2022-12-29T05:58:12;9.70;77.80
66086;DHT22;52868;49.758;9.586;2022-12-29T06:00:38;9.70;78.10
66086;DHT22;52868;49.758;9.586;2022-12-29T06:03:04;9.70;77.90
66086;DHT22;52868;49.758;9.586;2022-12-29T06:05:30;9.70;77.90
66086;DHT22;52868;49.758;9.586;2022-12-29T06:07:55;9.70;77.90
66086;DHT22;52868;49.758;9.586;2022-12-29T06:10:21;9.70;77.70
66086;DHT22;52868;49.758;9.586;2022-12-29T06:12:46;9.70;77.70
66086;DHT22;52868;49.758;9.586;2022-12-29T06:15:12;9.70;77.60
66086;DHT22;52868;49.758;9.586;2022-12-29T06:17:39;9.70;77.70
66086;DHT22;52868;49.758;9.586;2022-12-29T06:20:05;9.70;77.90
66086;DHT22;52868;49.758;9.586;2022-12-29T06:22:31;9.80;77.70
66086;DHT22;52868;49.758;9.586;2022-12-29T06:24:56;9.80;77.40
66086;DHT22;52868;49.758;9.586;2022-12-29T06:27:22;9.80;77.40
66086;DHT22;52868;49.758;9.586;2022-12-29T06:29:48;9.80;77.50
66086;DHT22;52868;49.758;9.586;2022-12-29T06:32:13;9.80;77.30
66086;DHT22;52868;49.758;9.586;2022-12-29T06:34:39;9.80;77.20
66086;DHT22;52868;49.758;9.586;2022-12-29T06:37:04;9.80;77.40
66086;DHT22;52868;49.758;9.586;2022-12-29T06:39:30;9.90;77.30
66086;DHT22;52868;49.758;9.586;2022-12-29T06:41:56;9.90;77.20
66086;DHT22;52868;49.758;9.586;2022-12-29T06:44:21;9.90;77.10
66086;DHT22;52868;49.758;9.586;2022-12-29T06:46:47;9.90;77.00
66086;DHT22;52868;49.758;9.586;2022-12-29T06:49:13;9.90;76.90
66086;DHT22;52868;49.758;9.586;2022-12-29T06:51:39;9.90;77.30
66086;DHT22;52868;49.758;9.586;2022-12-29T06:54:05;9.90;77.10
66086;DHT22;52868;49.758;9.586;2022-12-29T06:56:31;10.00;77.00
66086;DHT22;52868;49.758;9.586;2022-12-29T06:58:56;10.00;77.00
66086;DHT22;52868;49.758;9.586;2022-12-29T07:01:22;10.00;77.10
66086;DHT22;52868;49.758;9.586;2022-12-29T07:03:47;10.00;77.10
66086;DHT22;52868;49.758;9.586;2022-12-29T07:06:13;10.00;77.10
66086;DHT22;52868;49.758;9.586;2022-12-29T07:08:39;10.00;77.00
66086;DHT22;52868;49.758;9.586;2022-12-29T07:11:05;10.00;77.30
66086;DHT22;52868;49.758;9.586;2022-12-29T07:13:31;10.00;77.30
66086;DHT22;52868;49.758;9.586;2022-12-29T07:15:56;10.00;77.20
66086;DHT22;52868;49.758;9.586;2022-12-29T07:18:22;10.00;77.30
66086;DHT22;52868;49.758;9.586;2022-12-29T07:20:47;10.00;77.20
66086;DHT22;52868;49.758;9.586;2022-12-29T07:23:13;10.00;77.20
66086;DHT22;52868;49.758;9.586;2022-12-29T07:25:39;10.00;77.20
66086;DHT22;52868;49.758;9.586;2022-12-29T07:28:06;10.00;77.30
66086;DHT22;52868;49.758;9.586;2022-12-29T07:30:32;10.00;77.40
66086;DHT22;52868;49.758;9.586;2022-12-29T07:32:58;10.10;77.40
66086;DHT22;52868;49.758;9.586;2022-12-29T07:35:23;10.10;77.30
66086;DHT22;52868;49.758;9.586;2022-12-29T07:37:49;10.10;77.10
66086;DHT22;52868;49.758;9.586;2022-12-29T07:40:14;10.10;77.20
66086;DHT22;52868;49.758;9.586;2022-12-29T07:42:40;10.10;77.10
66086;DHT22;52868;49.758;9.586;2022-12-29T07:45:06;10.10;77.00
66086;DHT22;52868;49.758;9.586;2022-12-29T07:47:32;10.10;77.10
66086;DHT22;52868;49.758;9.586;2022-12-29T07:49:58;10.20;77.10
66086;DHT22;52868;49.758;9.586;2022-12-29T07:52:23;10.20;77.20
66086;DHT22;52868;49.758;9.586;2022-12-29T07:54:49;10.20;77.00
66086;DHT22;52868;49.758;9.586;2022-12-29T07:57:14;10.20;77.00
66086;DHT22;52868;49.758;9.586;2022-12-29T07:59:40;10.20;76.90
66086;DHT22;52868;49.758;9.586;2022-12-29T08:02:06;10.20;77.10
66086;DHT22;52868;49.758;9.586;2022-12-29T08:04:31;10.20;76.80
66086;DHT22;52868;49.758;9.586;2022-12-29T08:06:57;10.20;76.80
66086;DHT22;52868;49.758;9.586;2022-12-29T08:09:22;10.20;76.80
66086;DHT22;52868;49.758;9.586;2022-12-29T08:11:48;10.20;76.90
66086;DHT22;52868;49.758;9.586;2022-12-29T08:14:14;10.20;76.50
66086;DHT22;52868;49.758;9.586;2022-12-29T08:16:40;10.20;76.70
66086;DHT22;52868;49.758;9.586;2022-12-29T08:19:05;10.20;76.60
66086;DHT22;52868;49.758;9.586;2022-12-29T08:21:31;10.20;76.50
66086;DHT22;52868;49.758;9.586;2022-12-29T08:23:57;10.20;76.60
66086;DHT22;52868;49.758;9.586;2022-12-29T08:26:24;10.20;76.60
66086;DHT22;52868;49.758;9.586;2022-12-29T08:28:52;10.20;76.60
66086;DHT22;52868;49.758;9.586;2022-12-29T08:31:18;10.20;76.50
66086;DHT22;52868;49.758;9.586;2022-12-29T08:33:44;10.20;76.50
66086;DHT22;52868;49.758;9.586;2022-12-29T08:36:09;10.30;76.40
66086;DHT22;52868;49.758;9.586;2022-12-29T08:38:35;10.30;76.30
66086;DHT22;52868;49.758;9.586;2022-12-29T08:41:00;10.30;76.20
66086;DHT22;52868;49.758;9.586;2022-12-29T08:43:27;10.30;76.00
66086;DHT22;52868;49.758;9.586;2022-12-29T08:45:53;10.30;76.10
66086;DHT22;52868;49.758;9.586;2022-12-29T08:48:18;10.30;76.00
66086;DHT22;52868;49.758;9.586;2022-12-29T08:50:47;10.30;76.00
66086;DHT22;52868;49.758;9.586;2022-12-29T08:53:13;10.30;75.90
66086;DHT22;52868;49.758;9.586;2022-12-29T08:55:39;10.30;75.80
66086;DHT22;52868;49.758;9.586;2022-12-29T08:58:05;10.40;75.90
66086;DHT22;52868;49.758;9.586;2022-12-29T09:00:30;10.40;75.50
66086;DHT22;52868;49.758;9.586;2022-12-29T09:02:56;10.30;75.50
66086;DHT22;52868;49.758;9.586;2022-12-29T09:05:22;10.40;75.60
66086;DHT22;52868;49.758;9.586;2022-12-29T09:07:47;10.40;75.50
66086;DHT22;52868;49.758;9.586;2022-12-29T09:10:13;10.40;75.40
66086;DHT22;52868;49.758;9.586;2022-12-29T09:12:39;10.40;75.50
66086;DHT22;52868;49.758;9.586;2022-12-29T09:15:05;10.50;75.50
66086;DHT22;52868;49.758;9.586;2022-12-29T09:17:31;10.50;75.40
66086;DHT22;52868;49.758;9.586;2022-12-29T09:20:10;10.50;75.30
66086;DHT22;52868;49.758;9.586;2022-12-29T09:22:36;10.50;75.20
66086;DHT22;52868;49.758;9.586;2022-12-29T09:25:02;10.50;75.10
66086;DHT22;52868;49.758;9.586;2022-12-29T09:27:27;10.50;75.10
66086;DHT22;52868;49.758;9.586;2022-12-29T09:29:53;10.50;75.00
66086;DHT22;52868;49.758;9.586;2022-12-29T09:32:19;10.50;74.80
66086;DHT22;52868;49.758;9.586;2022-12-29T09:34:44;10.50;75.20
66086;DHT22;52868;49.758;9.586;2022-12-29T09:37:10;10.50;75.20
66086;DHT22;52868;49.758;9.586;2022-12-29T09:39:35;10.60;75.30
66086;DHT22;52868;49.758;9.586;2022-12-29T09:47:39;10.70;75.30
66086;DHT22;52868;49.758;9.586;2022-12-29T09:50:31;10.70;75.40
66086;DHT22;52868;49.758;9.586;2022-12-29T09:53:13;10.70;75.30
66086;DHT22;52868;49.758;9.586;2022-12-29T09:55:49;10.70;75.20
66086;DHT22;52868;49.758;9.586;2022-12-29T10:00:52;10.70;75.20
66086;DHT22;52868;49.758;9.586;2022-12-29T10:03:21;10.80;75.10
66086;DHT22;52868;49.758;9.586;2022-12-29T10:08:44;10.80;75.30
66086;DHT22;52868;49.758;9.586;2022-12-29T10:22:24;10.90;75.30
66086;DHT22;52868;49.758;9.586;2022-12-29T10:24:55;10.90;75.20
66086;DHT22;52868;49.758;9.586;2022-12-29T10:27:22;11.00;75.30
66086;DHT22;52868;49.758;9.586;2022-12-29T10:29:59;11.00;75.30
66086;DHT22;52868;49.758;9.586;2022-12-29T10:38:05;11.00;75.40
66086;DHT22;52868;49.758;9.586;2022-12-29T10:40:42;11.00;75.70
66086;DHT22;52868;49.758;9.586;2022-12-29T10:45:43;11.10;75.70
66086;DHT22;52868;49.758;9.586;2022-12-29T10:48:20;11.00;75.80
66086;DHT22;52868;49.758;9.586;2022-12-29T10:50:48;11.10;75.70
66086;DHT22;52868;49.758;9.586;2022-12-29T10:53:23;11.10;75.80
66086;DHT22;52868;49.758;9.586;2022-12-29T10:55:50;11.10;75.80
66086;DHT22;52868;49.758;9.586;2022-12-29T10:58:17;11.10;75.80
66086;DHT22;52868;49.758;9.586;2022-12-29T11:00:50;11.10;75.90
66086;DHT22;52868;49.758;9.586;2022-12-29T11:06:18;11.10;75.90
66086;DHT22;52868;49.758;9.586;2022-12-29T11:09:14;11.00;75.90
66086;DHT22;52868;49.758;9.586;2022-12-29T11:11:40;11.10;75.90
66086;DHT22;52868;49.758;9.586;2022-12-29T11:14:20;11.10;76.00
66086;DHT22;52868;49.758;9.586;2022-12-29T11:16:58;11.10;76.10
66086;DHT22;52868;49.758;9.586;2022-12-29T11:19:26;11.10;76.00
66086;DHT22;52868;49.758;9.586;2022-12-29T11:21:52;11.10;76.00
66086;DHT22;52868;49.758;9.586;2022-12-29T11:24:28;11.10;76.00
66086;DHT22;52868;49.758;9.586;2022-12-29T11:27:23;11.10;76.00
66086;DHT22;52868;49.758;9.586;2022-12-29T11:29:58;11.10;76.10
66086;DHT22;52868;49.758;9.586;2022-12-29T11:32:26;11.10;76.10
66086;DHT22;52868;49.758;9.586;2022-12-29T11:34:52;11.10;76.20
66086;DHT22;52868;49.758;9.586;2022-12-29T11:37:19;11.10;76.10
66086;DHT22;52868;49.758;9.586;2022-12-29T11:39:57;11.00;76.00
66086;DHT22;52868;49.758;9.586;2022-12-29T11:42:38;11.10;76.20
66086;DHT22;52868;49.758;9.586;2022-12-29T11:45:17;11.10;76.20
66086;DHT22;52868;49.758;9.586;2022-12-29T11:47:45;11.10;76.20
66086;DHT22;52868;49.758;9.586;2022-12-29T11:50:24;11.10;76.10
66086;DHT22;52868;49.758;9.586;2022-12-29T11:52:59;11.10;76.30
66086;DHT22;52868;49.758;9.586;2022-12-29T11:55:27;11.10;76.10
66086;DHT22;52868;49.758;9.586;2022-12-29T11:57:55;11.10;76.20
66086;DHT22;52868;49.758;9.586;2022-12-29T12:00:23;11.10;76.20
66086;DHT22;52868;49.758;9.586;2022-12-29T12:03:13;11.10;76.10
66086;DHT22;52868;49.758;9.586;2022-12-29T12:08:33;11.20;76.00
66086;DHT22;52868;49.758;9.586;2022-12-29T12:16:47;11.20;75.90
66086;DHT22;52868;49.758;9.586;2022-12-29T12:19:45;11.20;75.90
66086;DHT22;52868;49.758;9.586;2022-12-29T12:22:34;11.20;75.90
66086;DHT22;52868;49.758;9.586;2022-12-29T12:25:44;11.30;75.80
66086;DHT22;52868;49.758;9.586;2022-12-29T12:28:20;11.30;75.60
66086;DHT22;52868;49.758;9.586;2022-12-29T12:30:52;11.30;75.40
66086;DHT22;52868;49.758;9.586;2022-12-29T12:33:35;11.30;75.50
66086;DHT22;52868;49.758;9.586;2022-12-29T12:44:51;11.20;75.90
66086;DHT22;52868;49.758;9.586;2022-12-29T12:48:11;11.20;75.90
66086;DHT22;52868;49.758;9.586;2022-12-29T12:53:48;11.20;76.10
66086;DHT22;52868;49.758;9.586;2022-12-29T13:02:31;11.20;76.10
66086;DHT22;52868;49.758;9.586;2022-12-29T13:07:22;11.20;76.00
66086;DHT22;52868;49.758;9.586;2022-12-29T13:16:18;11.20;76.60
66086;DHT22;52868;49.758;9.586;2022-12-29T13:24:32;11.20;76.80
66086;DHT22;52868;49.758;9.586;2022-12-29T13:38:04;11.20;77.00
66086;DHT22;52868;49.758;9.586;2022-12-29T13:40:38;11.10;77.00
66086;DHT22;52868;49.758;9.586;2022-12-29T13:43:05;11.10;76.80
66086;DHT22;52868;49.758;9.586;2022-12-29T13:45:32;11.10;76.70
66086;DHT22;52868;49.758;9.586;2022-12-29T13:50:41;11.10;76.60
66086;DHT22;52868;49.758;9.586;2022-12-29T13:56:39;11.10;76.60
66086;DHT22;52868;49.758;9.586;2022-12-29T14:07:48;11.10;76.40
66086;DHT22;52868;49.758;9.586;2022-12-29T14:13:13;11.10;76.40
66086;DHT22;52868;49.758;9.586;2022-12-29T14:15:45;11.10;76.30
66086;DHT22;52868;49.758;9.586;2022-12-29T14:18:17;11.10;76.30
66086;DHT22;52868;49.758;9.586;2022-12-29T14:26:45;11.10;76.30
66086;DHT22;52868;49.758;9.586;2022-12-29T14:28:49;11.10;76.20
66086;DHT22;52868;49.758;9.586;2022-12-29T14:33:41;11.10;76.30
66086;DHT22;52868;49.758;9.586;2022-12-29T14:39:03;11.10;76.20
66086;DHT22;52868;49.758;9.586;2022-12-29T14:41:35;11.10;76.20
66086;DHT22;52868;49.758;9.586;2022-12-29T14:44:19;11.10;76.30
66086;DHT22;52868;49.758;9.586;2022-12-29T14:49:23;11.10;76.30
66086;DHT22;52868;49.758;9.586;2022-12-29T14:51:54;11.10;76.30
66086;DHT22;52868;49.758;9.586;2022-12-29T14:57:06;11.00;76.60
66086;DHT22;52868;49.758;9.586;2022-12-29T14:59:33;11.00;76.70
66086;DHT22;52868;49.758;9.586;2022-12-29T15:02:03;11.00;76.70
66086;DHT22;52868;49.758;9.586;2022-12-29T15:04:33;11.00;76.80
66086;DHT22;52868;49.758;9.586;2022-12-29T15:07:01;11.00;76.90
66086;DHT22;52868;49.758;9.586;2022-12-29T15:09:40;11.00;77.00
66086;DHT22;52868;49.758;9.586;2022-12-29T15:14:53;10.90;77.20
66086;DHT22;52868;49.758;9.586;2022-12-29T15:17:31;10.90;77.10
66086;DHT22;52868;49.758;9.586;2022-12-29T15:19:59;10.90;77.20
66086;DHT22;52868;49.758;9.586;2022-12-29T15:22:26;10.80;77.00
66086;DHT22;52868;49.758;9.586;2022-12-29T15:24:54;10.80;77.00
66086;DHT22;52868;49.758;9.586;2022-12-29T15:27:22;10.80;77.10
66086;DHT22;52868;49.758;9.586;2022-12-29T15:29:56;10.80;77.20
66086;DHT22;52868;49.758;9.586;2022-12-29T15:32:26;10.80;77.20
66086;DHT22;52868;49.758;9.586;2022-12-29T15:34:54;10.80;77.30
66086;DHT22;52868;49.758;9.586;2022-12-29T15:39:48;10.70;77.20
66086;DHT22;52868;49.758;9.586;2022-12-29T15:42:48;10.80;77.30
66086;DHT22;52868;49.758;9.586;2022-12-29T15:45:18;10.80;77.40
66086;DHT22;52868;49.758;9.586;2022-12-29T15:47:45;10.80;77.30
66086;DHT22;52868;49.758;9.586;2022-12-29T15:50:37;10.80;77.30
66086;DHT22;52868;49.758;9.586;2022-12-29T15:53:10;10.70;77.30
66086;DHT22;52868;49.758;9.586;2022-12-29T15:55:38;10.80;77.30
66086;DHT22;52868;49.758;9.586;2022-12-29T15:58:21;10.70;77.30
66086;DHT22;52868;49.758;9.586;2022-12-29T16:00:50;10.70;77.40
66086;DHT22;52868;49.758;9.586;2022-12-29T16:03:18;10.70;77.40
66086;DHT22;52868;49.758;9.586;2022-12-29T16:05:51;10.70;77.40
66086;DHT22;52868;49.758;9.586;2022-12-29T16:10:48;10.70;77.50
66086;DHT22;52868;49.758;9.586;2022-12-29T16:13:28;10.70;77.60
66086;DHT22;52868;49.758;9.586;2022-12-29T16:16:01;10.60;77.60
66086;DHT22;52868;49.758;9.586;2022-12-29T16:18:33;10.60;77.50
66086;DHT22;52868;49.758;9.586;2022-12-29T16:21:00;10.70;77.60
66086;DHT22;52868;49.758;9.586;2022-12-29T16:23:28;10.70;77.60
66086;DHT22;52868;49.758;9.586;2022-12-29T16:25:55;10.60;77.60
66086;DHT22;52868;49.758;9.586;2022-12-29T16:28:34;10.60;77.60
66086;DHT22;52868;49.758;9.586;2022-12-29T16:31:05;10.60;77.60
66086;DHT22;52868;49.758;9.586;2022-12-29T16:33:49;10.60;77.50
66086;DHT22;52868;49.758;9.586;2022-12-29T16:36:33;10.60;77.60
66086;DHT22;52868;49.758;9.586;2022-12-29T16:39:26;10.50;77.50
66086;DHT22;52868;49.758;9.586;2022-12-29T16:41:53;10.50;77.60
66086;DHT22;52868;49.758;9.586;2022-12-29T16:44:20;10.50;77.60
66086;DHT22;52868;49.758;9.586;2022-12-29T16:47:16;10.50;77.50
66086;DHT22;52868;49.758;9.586;2022-12-29T16:49:48;10.40;77.50
66086;DHT22;52868;49.758;9.586;2022-12-29T16:52:27;10.50;77.50
66086;DHT22;52868;49.758;9.586;2022-12-29T16:54:56;10.50;77.60
66086;DHT22;52868;49.758;9.586;2022-12-29T16:57:25;10.40;77.50
66086;DHT22;52868;49.758;9.586;2022-12-29T16:59:53;10.40;77.50
66086;DHT22;52868;49.758;9.586;2022-12-29T17:02:23;10.40;77.50
66086;DHT22;52868;49.758;9.586;2022-12-29T17:04:50;10.40;77.50
66086;DHT22;52868;49.758;9.586;2022-12-29T17:07:20;10.40;77.50
66086;DHT22;52868;49.758;9.586;2022-12-29T17:09:46;10.40;77.50
66086;DHT22;52868;49.758;9.586;2022-12-29T17:12:16;10.40;77.40
66086;DHT22;52868;49.758;9.586;2022-12-29T17:14:58;10.40;77.40
66086;DHT22;52868;49.758;9.586;2022-12-29T17:20:24;10.30;77.40
66086;DHT22;52868;49.758;9.586;2022-12-29T17:22:50;10.30;77.40
66086;DHT22;52868;49.758;9.586;2022-12-29T17:25:41;10.40;77.50
66086;DHT22;52868;49.758;9.586;2022-12-29T17:28:23;10.40;77.50
66086;DHT22;52868;49.758;9.586;2022-12-29T17:30:57;10.30;77.40
66086;DHT22;52868;49.758;9.586;2022-12-29T17:33:23;10.30;77.30
66086;DHT22;52868;49.758;9.586;2022-12-29T17:35:49;10.30;77.30
66086;DHT22;52868;49.758;9.586;2022-12-29T17:38:22;10.30;77.40
66086;DHT22;52868;49.758;9.586;2022-12-29T17:40:50;10.30;77.40
66086;DHT22;52868;49.758;9.586;2022-12-29T17:43:16;10.30;77.20
66086;DHT22;52868;49.758;9.586;2022-12-29T17:45:43;10.30;77.30
66086;DHT22;52868;49.758;9.586;2022-12-29T17:48:13;10.30;77.30
66086;DHT22;52868;49.758;9.586;2022-12-29T17:50:39;10.30;77.30
66086;DHT22;52868;49.758;9.586;2022-12-29T17:53:09;10.30;77.30
66086;DHT22;52868;49.758;9.586;2022-12-29T17:55:36;10.30;77.40
66086;DHT22;52868;49.758;9.586;2022-12-29T17:58:07;10.30;77.20
66086;DHT22;52868;49.758;9.586;2022-12-29T18:00:35;10.30;77.20
66086;DHT22;52868;49.758;9.586;2022-12-29T18:03:01;10.20;77.20
66086;DHT22;52868;49.758;9.586;2022-12-29T18:05:29;10.30;77.20
66086;DHT22;52868;49.758;9.586;2022-12-29T18:07:57;10.30;77.20
66086;DHT22;52868;49.758;9.586;2022-12-29T18:10:24;10.30;77.20
66086;DHT22;52868;49.758;9.586;2022-12-29T18:12:52;10.20;77.20
66086;DHT22;52868;49.758;9.586;2022-12-29T18:15:30;10.20;77.20
66086;DHT22;52868;49.758;9.586;2022-12-29T18:18:12;10.20;77.20
66086;DHT22;52868;49.758;9.586;2022-12-29T18:20:47;10.20;77.20
66086;DHT22;52868;49.758;9.586;2022-12-29T18:23:28;10.20;77.30
66086;DHT22;52868;49.758;9.586;2022-12-29T18:26:17;10.20;77.20
66086;DHT22;52868;49.758;9.586;2022-12-29T18:28:48;10.20;77.20
66086;DHT22;52868;49.758;9.586;2022-12-29T18:34:01;10.20;77.30
66086;DHT22;52868;49.758;9.586;2022-12-29T18:36:36;10.30;77.30
66086;DHT22;52868;49.758;9.586;2022-12-29T18:39:28;10.20;77.30